createdAt,value
2017-11-09T00:01:50.843Z,6.60
2017-11-09T00:04:23.954Z,6.80
2017-11-09T00:06:51.827Z,6.90
2017-11-09T00:09:19.482Z,6.90
2017-11-09T00:11:47.071Z,6.70
2017-11-09T00:14:15.831Z,6.70
2017-11-09T00:16:43.419Z,6.70
2017-11-09T00:19:12.184Z,6.70
2017-11-09T00:21:40.080Z,6.70
2017-11-09T00:24:07.669Z,6.70
2017-11-09T00:26:35.272Z,6.70
2017-11-09T00:29:02.926Z,6.60
2017-11-09T00:31:30.794Z,6.70
2017-11-09T00:33:58.383Z,6.70
2017-11-09T00:36:26.724Z,6.70
2017-11-09T00:38:55.102Z,6.70
2017-11-09T00:41:22.723Z,6.90
2017-11-09T00:43:50.700Z,6.90
2017-11-09T00:46:18.277Z,6.80
2017-11-09T00:48:45.872Z,6.90
2017-11-09T00:51:14.295Z,6.90
2017-11-09T00:53:41.875Z,6.90
2017-11-09T00:56:09.739Z,6.90
2017-11-09T00:58:37.333Z,6.90
2017-11-09T01:01:05.863Z,6.90
2017-11-09T01:03:33.757Z,6.80
2017-11-09T01:06:01.351Z,6.90
2017-11-09T01:08:29.680Z,6.90
2017-11-09T01:10:57.559Z,6.90
2017-11-09T01:13:25.230Z,6.90
2017-11-09T01:15:52.804Z,6.90
2017-11-09T01:18:20.650Z,7.00
2017-11-09T01:20:48.322Z,7.00
2017-11-09T01:23:15.898Z,6.90
2017-11-09T01:25:43.767Z,6.80
2017-11-09T01:28:12.110Z,6.60
2017-11-09T01:30:39.748Z,6.50
2017-11-09T01:33:07.638Z,6.60
2017-11-09T01:35:35.220Z,6.60
2017-11-09T01:38:02.798Z,6.60
2017-11-09T01:40:31.242Z,6.70
2017-11-09T01:42:58.833Z,6.70
2017-11-09T01:45:27.247Z,6.80
2017-11-09T01:47:54.982Z,6.80
2017-11-09T01:50:23.328Z,6.80
2017-11-09T01:52:50.994Z,6.80
2017-11-09T01:55:18.593Z,6.80
2017-11-09T01:57:46.167Z,6.80
2017-11-09T02:00:13.952Z,6.80
2017-11-09T02:02:41.532Z,6.80
2017-11-09T02:05:09.106Z,6.80
2017-11-09T02:07:37.742Z,6.70
2017-11-09T02:10:05.378Z,6.60
2017-11-09T02:12:32.946Z,6.70
2017-11-09T02:15:00.523Z,6.70
2017-11-09T02:17:28.158Z,6.70
2017-11-09T02:19:55.796Z,6.70
2017-11-09T02:22:24.133Z,6.60
2017-11-09T02:24:51.719Z,6.60
2017-11-09T02:27:20.079Z,6.70
2017-11-09T02:29:47.670Z,6.60
2017-11-09T02:32:16.059Z,6.60
2017-11-09T02:34:44.387Z,6.60
2017-11-09T02:37:11.964Z,6.60
2017-11-09T02:39:40.451Z,6.60
2017-11-09T02:42:08.064Z,6.60
2017-11-09T02:44:35.644Z,6.60
2017-11-09T02:47:03.219Z,6.60
2017-11-09T02:49:30.825Z,6.70
2017-11-09T02:51:58.422Z,6.70
2017-11-09T02:54:29.561Z,6.70
2017-11-09T02:56:57.161Z,6.50
2017-11-09T02:59:24.722Z,6.60
2017-11-09T03:01:53.065Z,6.50
2017-11-09T03:04:20.721Z,6.40
2017-11-09T03:06:48.284Z,6.30
2017-11-09T03:09:15.896Z,6.40
2017-11-09T03:11:43.481Z,6.40
2017-11-09T03:14:11.098Z,6.30
2017-11-09T03:16:39.527Z,6.30
2017-11-09T03:19:07.107Z,6.40
2017-11-09T03:21:34.713Z,6.30
2017-11-09T03:24:03.107Z,6.20
2017-11-09T03:26:30.685Z,6.20
2017-11-09T03:28:58.287Z,6.20
2017-11-09T03:31:25.867Z,6.20
2017-11-09T03:33:54.234Z,6.10
2017-11-09T03:36:22.644Z,6.20
2017-11-09T03:38:50.208Z,6.20
2017-11-09T03:41:17.805Z,6.20
2017-11-09T03:43:45.596Z,6.30
2017-11-09T03:46:14.100Z,6.40
2017-11-09T03:48:41.675Z,6.40
2017-11-09T03:51:09.287Z,6.30
2017-11-09T03:53:36.935Z,6.40
2017-11-09T03:56:04.507Z,6.30
2017-11-09T03:58:32.894Z,6.40
2017-11-09T04:01:01.253Z,6.40
2017-11-09T04:03:29.102Z,6.40
2017-11-09T04:05:56.738Z,6.40
2017-11-09T04:08:24.330Z,6.40
2017-11-09T04:10:51.939Z,6.30
2017-11-09T04:13:19.592Z,6.30
2017-11-09T04:15:47.976Z,6.30
2017-11-09T04:18:15.547Z,6.30
2017-11-09T04:20:43.403Z,6.30
2017-11-09T04:23:11.052Z,6.40
2017-11-09T04:25:39.403Z,6.50
2017-11-09T04:28:06.991Z,6.50
2017-11-09T04:30:35.358Z,6.60
2017-11-09T04:33:03.718Z,6.60
2017-11-09T04:35:31.361Z,6.60
2017-11-09T04:37:59.342Z,6.60
2017-11-09T04:40:26.934Z,6.60
2017-11-09T04:42:55.275Z,6.50
2017-11-09T04:45:22.917Z,6.50
2017-11-09T04:47:50.487Z,6.50
2017-11-09T04:50:18.089Z,6.60
2017-11-09T04:52:46.455Z,6.60
2017-11-09T04:55:14.424Z,6.60
2017-11-09T04:57:42.020Z,6.70
2017-11-09T05:00:09.606Z,6.70
2017-11-09T05:02:37.216Z,6.70
2017-11-09T05:05:05.560Z,6.70
2017-11-09T05:07:33.242Z,6.70
2017-11-09T05:10:00.807Z,6.70
2017-11-09T05:12:28.785Z,6.70
2017-11-09T05:14:57.168Z,6.70
2017-11-09T05:17:25.554Z,6.70
2017-11-09T05:19:53.170Z,6.70
2017-11-09T05:22:20.752Z,6.70
2017-11-09T05:24:49.135Z,6.70
2017-11-09T05:27:17.964Z,6.80
2017-11-09T05:29:45.866Z,6.70
2017-11-09T05:32:13.442Z,6.80
2017-11-09T05:34:44.126Z,6.80
2017-11-09T05:37:15.199Z,6.80
2017-11-09T05:39:42.770Z,6.90
2017-11-09T05:42:10.382Z,6.80
2017-11-09T05:44:37.972Z,6.90
2017-11-09T05:47:05.934Z,6.80
2017-11-09T05:49:33.549Z,6.80
2017-11-09T05:52:01.163Z,6.90
2017-11-09T05:54:28.785Z,6.80
2017-11-09T05:56:56.366Z,6.80
2017-11-09T05:59:24.002Z,6.80
2017-11-09T06:01:51.600Z,6.80
2017-11-09T06:04:19.450Z,6.80
2017-11-09T06:06:47.038Z,6.80
2017-11-09T06:09:14.726Z,6.70
2017-11-09T06:11:43.136Z,6.70
2017-11-09T06:14:10.719Z,6.70
2017-11-09T06:16:39.084Z,6.60
2017-11-09T06:19:06.716Z,6.60
2017-11-09T06:21:34.544Z,6.70
2017-11-09T06:24:02.120Z,6.70
2017-11-09T06:26:30.474Z,6.70
2017-11-09T06:28:58.125Z,6.70
2017-11-09T06:31:25.862Z,6.70
2017-11-09T06:33:53.505Z,6.80
2017-11-09T06:36:21.104Z,6.80
2017-11-09T06:38:48.992Z,6.80
2017-11-09T06:41:16.601Z,6.80
2017-11-09T06:43:44.212Z,6.70
2017-11-09T06:46:11.813Z,6.70
2017-11-09T06:48:39.582Z,6.70
2017-11-09T06:51:07.185Z,6.80
2017-11-09T06:53:34.763Z,6.80
2017-11-09T06:56:02.659Z,6.80
2017-11-09T06:58:30.314Z,6.80
2017-11-09T07:01:01.400Z,6.80
2017-11-09T07:03:29.035Z,6.90
2017-11-09T07:05:56.613Z,6.90
2017-11-09T07:08:24.247Z,6.90
2017-11-09T07:10:52.881Z,7.00
2017-11-09T07:13:20.890Z,6.90
2017-11-09T07:15:48.476Z,7.00
2017-11-09T07:18:16.061Z,7.10
2017-11-09T07:20:43.702Z,7.10
2017-11-09T07:23:11.292Z,7.10
2017-11-09T07:25:39.016Z,7.20
2017-11-09T07:28:06.610Z,7.20
2017-11-09T07:30:34.650Z,7.30
2017-11-09T07:33:02.251Z,7.40
2017-11-09T07:35:29.797Z,7.60
2017-11-09T07:37:57.395Z,7.50
2017-11-09T07:40:25.776Z,7.40
2017-11-09T07:42:53.382Z,7.40
2017-11-09T07:45:20.960Z,7.60
2017-11-09T07:47:48.928Z,7.60
2017-11-09T07:50:16.523Z,7.40
2017-11-09T07:52:44.879Z,7.40
2017-11-09T07:55:12.484Z,7.40
2017-11-09T07:57:40.103Z,7.40
2017-11-09T08:00:07.696Z,7.40
2017-11-09T08:02:35.272Z,7.40
2017-11-09T08:05:03.153Z,7.30
2017-11-09T08:07:30.814Z,7.40
2017-11-09T08:09:58.377Z,7.60
2017-11-09T08:12:26.052Z,7.40
2017-11-09T08:14:53.642Z,7.40
2017-11-09T08:17:22.026Z,7.40
2017-11-09T08:19:51.311Z,7.30
2017-11-09T08:22:19.991Z,7.30
2017-11-09T08:24:49.350Z,7.30
2017-11-09T08:27:23.250Z,7.30
2017-11-09T08:29:52.104Z,7.40
2017-11-09T08:32:23.091Z,7.80
2017-11-09T08:34:50.666Z,7.70
2017-11-09T08:37:18.263Z,7.90
2017-11-09T08:39:46.710Z,8.10
2017-11-09T08:42:14.279Z,8.10
2017-11-09T08:44:41.908Z,8.20
2017-11-09T08:47:09.527Z,8.20
2017-11-09T08:49:38.467Z,8.10
2017-11-09T08:52:06.087Z,8.10
2017-11-09T08:54:33.676Z,8.10
2017-11-09T08:57:01.332Z,8.20
2017-11-09T08:59:28.907Z,8.20
2017-11-09T09:01:56.783Z,8.20
2017-11-09T09:04:24.359Z,8.20
2017-11-09T09:06:51.949Z,8.10
2017-11-09T09:09:20.459Z,8.10
2017-11-09T09:11:48.039Z,8.10
2017-11-09T09:14:15.607Z,8.00
2017-11-09T09:16:43.252Z,8.10
2017-11-09T09:19:11.126Z,8.00
2017-11-09T09:21:44.285Z,8.00
2017-11-09T09:24:13.866Z,8.00
2017-11-09T09:26:45.014Z,8.10
2017-11-09T09:29:19.565Z,8.10
2017-11-09T09:31:47.178Z,8.10
2017-11-09T09:34:17.832Z,8.20
2017-11-09T09:36:48.871Z,8.40
2017-11-09T09:39:18.539Z,8.60
2017-11-09T09:41:46.119Z,8.50
2017-11-09T09:44:13.702Z,8.70
2017-11-09T09:46:42.255Z,8.90
2017-11-09T09:49:09.849Z,8.80
2017-11-09T09:51:37.750Z,8.80
2017-11-09T09:54:05.332Z,8.80
2017-11-09T09:56:32.945Z,8.80
2017-11-09T09:59:00.569Z,8.70
2017-11-09T10:01:28.154Z,8.70
2017-11-09T10:03:55.968Z,8.60
2017-11-09T10:06:23.567Z,8.60
2017-11-09T10:08:52.196Z,8.70
2017-11-09T10:11:19.783Z,8.70
2017-11-09T10:13:47.394Z,8.70
2017-11-09T10:16:14.987Z,8.70
2017-11-09T10:18:42.575Z,8.50
2017-11-09T10:21:10.171Z,8.50
2017-11-09T10:23:37.865Z,8.40
2017-11-09T10:26:05.809Z,8.40
2017-11-09T10:28:34.246Z,8.50
2017-11-09T10:31:02.590Z,8.60
2017-11-09T10:33:30.220Z,8.60
2017-11-09T10:35:57.794Z,8.40
2017-11-09T10:38:25.402Z,8.50
2017-11-09T10:40:52.985Z,8.50
2017-11-09T10:43:20.906Z,8.60
2017-11-09T10:45:48.495Z,8.50
2017-11-09T10:48:16.850Z,8.40
2017-11-09T10:50:44.473Z,8.40
2017-11-09T10:53:12.078Z,8.40
2017-11-09T10:55:39.667Z,8.50
2017-11-09T10:58:07.255Z,8.40
2017-11-09T11:00:40.932Z,8.20
2017-11-09T11:03:08.544Z,8.20
2017-11-09T11:05:36.143Z,8.10
2017-11-09T11:08:04.514Z,8.20
2017-11-09T11:10:32.873Z,8.20
2017-11-09T11:13:00.631Z,8.20
2017-11-09T11:15:28.272Z,8.20
2017-11-09T11:17:56.256Z,8.30
2017-11-09T11:20:23.887Z,8.30
2017-11-09T11:22:51.516Z,8.40
2017-11-09T11:25:19.875Z,8.60
2017-11-09T11:27:47.476Z,8.50
2017-11-09T11:30:15.182Z,8.70
2017-11-09T11:32:42.768Z,8.70
2017-11-09T11:35:11.410Z,8.70
2017-11-09T11:37:39.801Z,8.80
2017-11-09T11:40:07.375Z,8.80
2017-11-09T11:42:34.971Z,8.80
2017-11-09T11:45:02.552Z,8.80
2017-11-09T11:47:33.851Z,8.90
2017-11-09T11:50:02.223Z,8.90
2017-11-09T11:52:30.600Z,9.00
2017-11-09T11:54:58.212Z,9.00
2017-11-09T11:57:25.846Z,9.10
2017-11-09T11:59:53.698Z,9.00
2017-11-09T12:02:22.055Z,9.10
2017-11-09T12:04:51.562Z,9.10
2017-11-09T12:07:19.178Z,9.10
2017-11-09T12:09:46.767Z,9.40
2017-11-09T12:12:14.611Z,9.50
2017-11-09T12:14:42.207Z,9.70
2017-11-09T12:17:12.755Z,9.80
2017-11-09T12:19:41.155Z,9.80
2017-11-09T12:22:08.856Z,9.80
2017-11-09T12:24:36.467Z,9.70
2017-11-09T12:27:04.794Z,9.30
2017-11-09T12:29:32.390Z,9.30
2017-11-09T12:32:00.787Z,9.30
2017-11-09T12:34:28.372Z,9.20
2017-11-09T12:36:56.228Z,9.30
2017-11-09T12:39:23.832Z,9.40
2017-11-09T12:41:51.452Z,9.50
2017-11-09T12:44:19.083Z,9.60
2017-11-09T12:46:47.434Z,9.80
2017-11-09T12:49:15.067Z,9.80
2017-11-09T12:51:42.664Z,9.50
2017-11-09T12:54:10.526Z,9.70
2017-11-09T12:56:38.141Z,9.70
2017-11-09T12:59:05.903Z,9.80
2017-11-09T13:01:33.536Z,9.90
2017-11-09T13:04:01.888Z,10.40
2017-11-09T13:06:29.492Z,10.40
2017-11-09T13:08:57.140Z,10.50
2017-11-09T13:11:24.976Z,10.50
2017-11-09T13:13:52.570Z,10.60
2017-11-09T13:16:20.163Z,10.60
2017-11-09T13:18:47.867Z,10.60
2017-11-09T13:21:16.235Z,10.50
2017-11-09T13:23:44.882Z,10.60
2017-11-09T13:26:12.456Z,10.60
2017-11-09T13:28:40.057Z,10.60
2017-11-09T13:31:08.490Z,10.80
2017-11-09T13:33:39.070Z,10.70
2017-11-09T13:36:07.684Z,10.60
2017-11-09T13:38:35.320Z,10.60
2017-11-09T13:41:03.680Z,10.60
2017-11-09T13:43:32.061Z,10.60
2017-11-09T13:46:00.411Z,10.80
2017-11-09T13:48:28.100Z,10.80
2017-11-09T13:50:56.475Z,10.80
2017-11-09T13:53:25.134Z,10.70
2017-11-09T13:55:52.759Z,10.70
2017-11-09T13:58:20.419Z,10.70
2017-11-09T14:00:48.052Z,10.70
2017-11-09T14:03:16.430Z,10.50
2017-11-09T14:05:44.840Z,10.20
2017-11-09T14:08:12.482Z,10.20
2017-11-09T14:10:40.238Z,10.10
2017-11-09T14:13:08.618Z,9.90
2017-11-09T14:15:36.977Z,9.80
2017-11-09T14:18:05.353Z,9.80
2017-11-09T14:20:33.444Z,9.70
2017-11-09T14:23:02.060Z,9.70
2017-11-09T14:25:29.643Z,9.70
2017-11-09T14:27:57.225Z,9.60
2017-11-09T14:30:24.836Z,9.50
2017-11-09T14:32:52.428Z,9.50
2017-11-09T14:35:20.029Z,9.50
2017-11-09T14:37:48.383Z,9.50
2017-11-09T14:40:16.325Z,9.50
2017-11-09T14:42:44.064Z,9.30
2017-11-09T14:45:11.645Z,9.20
2017-11-09T14:47:39.266Z,9.20
2017-11-09T14:50:06.878Z,9.20
2017-11-09T14:52:34.492Z,9.10
2017-11-09T14:55:02.087Z,9.10
2017-11-09T14:57:30.065Z,9.00
2017-11-09T14:59:57.732Z,9.00
2017-11-09T15:02:25.337Z,9.00
2017-11-09T15:04:52.953Z,8.90
2017-11-09T15:07:20.601Z,8.80
2017-11-09T15:09:48.477Z,8.70
2017-11-09T15:12:16.086Z,8.70
2017-11-09T15:14:43.940Z,8.70
2017-11-09T15:17:12.279Z,8.80
2017-11-09T15:19:39.838Z,8.80
2017-11-09T15:22:07.453Z,8.80
2017-11-09T15:24:35.053Z,8.70
2017-11-09T15:27:02.839Z,8.70
2017-11-09T15:29:30.404Z,8.60
2017-11-09T15:32:01.072Z,8.60
2017-11-09T15:34:28.650Z,8.60
2017-11-09T15:36:56.233Z,8.50
2017-11-09T15:39:26.440Z,8.50
2017-11-09T15:41:55.627Z,8.50
2017-11-09T15:44:24.107Z,8.50
2017-11-09T15:46:51.733Z,8.40
2017-11-09T15:49:19.871Z,8.40
2017-11-09T15:51:48.260Z,8.20
2017-11-09T15:54:15.834Z,8.20
2017-11-09T15:56:44.227Z,8.20
2017-11-09T15:59:11.840Z,8.20
2017-11-09T16:01:39.494Z,8.20
2017-11-09T16:04:07.089Z,8.20
2017-11-09T16:06:38.477Z,8.10
2017-11-09T16:09:06.060Z,8.00
2017-11-09T16:11:33.712Z,8.10
2017-11-09T16:14:01.539Z,8.10
2017-11-09T16:16:29.131Z,8.00
2017-11-09T16:18:56.724Z,7.90
2017-11-09T16:21:24.315Z,8.00
2017-11-09T16:23:53.912Z,8.10
2017-11-09T16:26:22.266Z,8.10
2017-11-09T16:28:49.847Z,8.00
2017-11-09T16:31:18.222Z,8.00
2017-11-09T16:33:46.567Z,8.00
2017-11-09T16:36:14.350Z,8.00
2017-11-09T16:38:41.956Z,7.90
2017-11-09T16:41:09.772Z,7.90
2017-11-09T16:43:37.358Z,8.00
2017-11-09T16:46:05.728Z,7.90
2017-11-09T16:48:33.353Z,7.90
2017-11-09T16:51:00.928Z,7.90
2017-11-09T16:53:28.542Z,7.90
2017-11-09T16:55:56.412Z,7.90
2017-11-09T16:58:24.309Z,7.80
2017-11-09T17:00:51.898Z,7.80
2017-11-09T17:03:20.261Z,7.60
2017-11-09T17:05:48.018Z,7.60
2017-11-09T17:08:15.608Z,7.70
2017-11-09T17:10:44.042Z,7.70
2017-11-09T17:13:11.696Z,7.70
2017-11-09T17:15:39.598Z,7.70
2017-11-09T17:18:12.708Z,7.70
2017-11-09T17:20:40.759Z,7.60
2017-11-09T17:23:08.461Z,7.60
2017-11-09T17:25:36.041Z,7.60
2017-11-09T17:28:03.666Z,7.60
2017-11-09T17:30:31.309Z,7.60
2017-11-09T17:32:59.760Z,7.60
2017-11-09T17:35:27.356Z,7.50
2017-11-09T17:37:56.005Z,7.60
2017-11-09T17:40:23.602Z,7.60
2017-11-09T17:42:54.820Z,7.60
2017-11-09T17:45:22.447Z,7.50
2017-11-09T17:47:50.036Z,7.50
2017-11-09T17:50:18.018Z,7.50
2017-11-09T17:52:45.610Z,7.60
2017-11-09T17:55:13.223Z,7.50
2017-11-09T17:57:40.893Z,7.50
2017-11-09T18:00:14.121Z,7.50
2017-11-09T18:02:41.739Z,7.40
2017-11-09T18:05:09.499Z,7.40
2017-11-09T18:07:37.393Z,7.30
2017-11-09T18:10:05.783Z,7.30
2017-11-09T18:12:33.375Z,7.30
2017-11-09T18:15:01.070Z,7.30
2017-11-09T18:17:28.657Z,7.30
2017-11-09T18:19:57.043Z,7.20
2017-11-09T18:22:28.415Z,7.20
2017-11-09T18:24:56.063Z,7.20
2017-11-09T18:27:23.681Z,7.30
2017-11-09T18:29:51.339Z,7.20
2017-11-09T18:32:18.939Z,7.30
2017-11-09T18:34:46.829Z,7.30
2017-11-09T18:37:14.470Z,7.20
2017-11-09T18:39:42.479Z,7.10
2017-11-09T18:42:10.275Z,7.10
2017-11-09T18:44:37.898Z,7.10
2017-11-09T18:47:05.539Z,7.00
2017-11-09T18:49:33.176Z,7.00
2017-11-09T18:52:01.075Z,6.90
2017-11-09T18:54:28.682Z,6.70
2017-11-09T18:56:56.495Z,6.60
2017-11-09T18:59:24.156Z,6.50
2017-11-09T19:01:51.767Z,6.30
2017-11-09T19:04:19.382Z,6.30
2017-11-09T19:06:46.959Z,6.20
2017-11-09T19:09:14.942Z,6.10
2017-11-09T19:11:42.557Z,6.00
2017-11-09T19:14:10.222Z,5.90
2017-11-09T19:16:37.878Z,5.80
2017-11-09T19:19:05.528Z,6.00
2017-11-09T19:21:33.930Z,6.30
2017-11-09T19:24:01.535Z,6.20
2017-11-09T19:26:29.552Z,6.30
2017-11-09T19:28:57.171Z,6.30
2017-11-09T19:31:24.843Z,6.40
2017-11-09T19:33:53.244Z,6.60
2017-11-09T19:36:20.884Z,6.50
2017-11-09T19:38:48.551Z,6.70
2017-11-09T19:41:16.933Z,6.80
2017-11-09T19:43:45.362Z,6.80
2017-11-09T19:46:13.072Z,6.80
2017-11-09T19:48:41.845Z,6.70
2017-11-09T19:51:09.527Z,6.70
2017-11-09T19:53:37.200Z,6.80
2017-11-09T19:56:05.030Z,6.80
2017-11-09T19:58:32.881Z,6.80
2017-11-09T20:01:00.530Z,6.80
2017-11-09T20:03:28.159Z,6.90
2017-11-09T20:05:55.790Z,6.90
2017-11-09T20:08:24.174Z,6.90
2017-11-09T20:10:52.924Z,6.90
2017-11-09T20:13:20.611Z,6.90
2017-11-09T20:15:48.260Z,6.90
2017-11-09T20:18:15.914Z,6.90
2017-11-09T20:20:43.539Z,6.90
2017-11-09T20:23:11.217Z,6.90
2017-11-09T20:25:38.824Z,6.80
2017-11-09T20:28:06.928Z,6.80
2017-11-09T20:30:34.942Z,6.80
2017-11-09T20:33:02.752Z,6.70
2017-11-09T20:35:30.411Z,6.80
2017-11-09T20:37:59.816Z,6.80
2017-11-09T20:40:28.374Z,6.80
2017-11-09T20:42:56.745Z,6.90
2017-11-09T20:45:25.413Z,6.90
2017-11-09T20:47:53.084Z,6.90
2017-11-09T20:50:20.679Z,6.80
2017-11-09T20:52:48.300Z,6.90
2017-11-09T20:55:16.044Z,6.90
2017-11-09T20:57:43.729Z,6.90
2017-11-09T21:00:12.147Z,6.90
2017-11-09T21:02:39.757Z,6.90
2017-11-09T21:05:07.400Z,6.80
2017-11-09T21:07:35.349Z,6.80
2017-11-09T21:10:02.976Z,6.90
2017-11-09T21:12:31.338Z,6.90
2017-11-09T21:14:59.031Z,6.90
2017-11-09T21:17:26.623Z,6.90
2017-11-09T21:19:54.469Z,6.90
2017-11-09T21:22:22.073Z,6.90
2017-11-09T21:24:49.955Z,6.90
2017-11-09T21:27:18.309Z,6.80
2017-11-09T21:29:45.958Z,6.80
2017-11-09T21:32:13.559Z,6.80
2017-11-09T21:34:42.028Z,6.80
2017-11-09T21:37:09.872Z,6.80
2017-11-09T21:39:37.489Z,6.80
2017-11-09T21:42:05.430Z,6.80
2017-11-09T21:44:33.865Z,6.80
2017-11-09T21:47:01.535Z,6.80
2017-11-09T21:49:29.243Z,6.70
2017-11-09T21:51:57.687Z,6.70
2017-11-09T21:54:25.383Z,6.70
2017-11-09T21:56:54.018Z,6.70
2017-11-09T21:59:22.070Z,6.70
2017-11-09T22:01:49.752Z,6.70
2017-11-09T22:04:17.375Z,6.70
2017-11-09T22:06:45.171Z,6.70
2017-11-09T22:09:12.832Z,6.70
2017-11-09T22:11:40.647Z,6.60
2017-11-09T22:14:09.252Z,6.60
2017-11-09T22:16:37.124Z,6.60
2017-11-09T22:19:04.713Z,6.50
2017-11-09T22:21:32.327Z,6.40
2017-11-09T22:24:00.779Z,6.30
2017-11-09T22:26:28.353Z,6.30
2017-11-09T22:28:56.013Z,6.30
2017-11-09T22:31:23.769Z,6.20
2017-11-09T22:33:51.723Z,6.10
2017-11-09T22:36:19.335Z,6.00
2017-11-09T22:38:47.135Z,5.90
2017-11-09T22:41:14.814Z,5.80
2017-11-09T22:43:42.457Z,5.70
2017-11-09T22:46:10.075Z,5.70
2017-11-09T22:48:37.659Z,5.60
2017-11-09T22:51:05.545Z,5.60
2017-11-09T22:53:33.443Z,5.60
2017-11-09T22:56:01.977Z,5.60
2017-11-09T22:58:29.582Z,5.60
2017-11-09T23:00:57.174Z,5.60
2017-11-09T23:03:24.784Z,5.50
2017-11-09T23:05:52.486Z,5.60
2017-11-09T23:08:21.144Z,5.60
2017-11-09T23:10:48.743Z,5.50
2017-11-09T23:13:16.391Z,5.60
2017-11-09T23:15:44.800Z,5.80
2017-11-09T23:18:12.359Z,5.70
2017-11-09T23:20:39.963Z,5.60
2017-11-09T23:23:07.573Z,5.40
2017-11-09T23:25:35.475Z,5.40
2017-11-09T23:28:03.063Z,5.40
2017-11-09T23:30:31.449Z,5.30
2017-11-09T23:32:59.822Z,5.20
2017-11-09T23:35:28.190Z,5.10
2017-11-09T23:37:56.525Z,5.00
2017-11-09T23:40:24.105Z,4.90
2017-11-09T23:42:51.770Z,4.90
2017-11-09T23:45:19.388Z,4.80
2017-11-09T23:47:46.992Z,4.80
2017-11-09T23:50:14.909Z,4.80
2017-11-09T23:52:42.537Z,4.80
2017-11-09T23:55:10.187Z,4.90
2017-11-09T23:57:37.865Z,4.90
